createdAt,value
2018-08-17T00:04:03.496Z,7.60
2018-08-17T00:09:07.947Z,7.23
2018-08-17T00:14:10.145Z,7.37
2018-08-17T00:19:12.292Z,7.63
2018-08-17T00:24:14.461Z,7.27
2018-08-17T00:29:16.630Z,7.60
2018-08-17T00:34:18.799Z,6.93
2018-08-17T00:39:20.998Z,7.80
2018-08-17T00:44:23.134Z,6.57
2018-08-17T00:49:25.314Z,7.83
2018-08-17T00:54:27.460Z,8.40
2018-08-17T00:59:29.656Z,8.23
2018-08-17T01:04:31.773Z,7.90
2018-08-17T01:09:33.923Z,9.07
2018-08-17T01:14:36.050Z,8.07
2018-08-17T01:19:38.205Z,8.53
2018-08-17T01:24:40.400Z,8.17
2018-08-17T01:29:42.550Z,7.53
2018-08-17T01:34:44.663Z,9.00
2018-08-17T01:39:46.944Z,7.90
2018-08-17T01:44:49.084Z,8.53
2018-08-17T01:49:51.241Z,8.20
2018-08-17T01:54:53.358Z,8.93
2018-08-17T01:59:55.525Z,8.93
2018-08-17T02:04:57.694Z,9.03
2018-08-17T02:09:59.880Z,9.63
2018-08-17T02:15:02.019Z,8.93
2018-08-17T02:20:04.204Z,8.70
2018-08-17T02:25:06.381Z,8.93
2018-08-17T02:30:08.541Z,8.20
2018-08-17T02:35:10.774Z,7.50
2018-08-17T02:40:12.909Z,7.83
2018-08-17T02:45:15.088Z,8.40
2018-08-17T02:50:17.243Z,7.53
2018-08-17T02:55:19.395Z,7.60
2018-08-17T03:00:21.522Z,7.50
2018-08-17T03:05:23.660Z,6.77
2018-08-17T03:10:25.836Z,8.03
2018-08-17T03:15:27.986Z,7.53
2018-08-17T03:20:30.173Z,7.33
2018-08-17T03:25:32.426Z,7.00
2018-08-17T03:30:34.583Z,7.37
2018-08-17T03:35:36.716Z,6.60
2018-08-17T03:40:38.849Z,6.73
2018-08-17T03:45:40.997Z,6.93
2018-08-17T03:50:43.144Z,6.70
2018-08-17T03:55:45.265Z,6.20
2018-08-17T04:00:47.433Z,7.30
2018-08-17T04:05:49.560Z,7.17
2018-08-17T04:10:51.705Z,6.80
2018-08-17T04:15:53.850Z,7.20
2018-08-17T04:20:55.979Z,6.20
2018-08-17T04:25:58.138Z,6.97
2018-08-17T04:31:00.255Z,7.67
2018-08-17T04:36:02.428Z,7.50
2018-08-17T04:41:04.577Z,7.00
2018-08-17T04:46:06.758Z,7.30
2018-08-17T04:51:08.948Z,8.13
2018-08-17T04:56:11.100Z,7.53
2018-08-17T05:01:13.235Z,7.93
2018-08-17T05:06:15.403Z,7.30
2018-08-17T05:11:17.572Z,8.57
2018-08-17T05:16:19.707Z,8.87
2018-08-17T05:21:21.891Z,9.30
2018-08-17T05:26:24.051Z,10.90
2018-08-17T05:31:26.215Z,10.30
2018-08-17T05:36:28.367Z,9.70
2018-08-17T05:41:30.530Z,8.80
2018-08-17T05:46:32.820Z,8.20
2018-08-17T05:51:34.992Z,9.00
2018-08-17T05:56:37.197Z,6.87
2018-08-17T06:01:39.257Z,9.20
2018-08-17T06:06:41.431Z,7.37
2018-08-17T06:11:43.633Z,6.70
2018-08-17T06:16:45.749Z,6.47
2018-08-17T06:21:48.044Z,5.27
2018-08-17T06:26:50.205Z,5.30
2018-08-17T06:31:53.768Z,5.90
2018-08-17T06:36:55.943Z,5.10
2018-08-17T06:41:58.112Z,4.10
2018-08-17T06:47:00.340Z,3.90
2018-08-17T06:52:02.824Z,3.93
2018-08-17T06:57:05.019Z,5.17
2018-08-17T07:02:07.171Z,3.33
2018-08-17T07:07:09.319Z,3.20
2018-08-17T07:12:11.499Z,2.80
2018-08-17T07:17:13.611Z,2.90
2018-08-17T07:22:15.794Z,2.60
2018-08-17T07:27:17.935Z,2.10
2018-08-17T07:32:20.110Z,2.03
2018-08-17T07:37:22.267Z,1.67
2018-08-17T07:42:24.437Z,1.97
2018-08-17T07:47:26.587Z,1.67
2018-08-17T07:52:28.750Z,1.77
2018-08-17T07:57:30.980Z,1.90
2018-08-17T08:02:33.478Z,2.13
2018-08-17T08:07:35.893Z,1.90
2018-08-17T08:12:38.250Z,1.80
2018-08-17T08:17:40.413Z,2.17
2018-08-17T08:22:42.593Z,2.60
2018-08-17T08:27:45.091Z,2.40
2018-08-17T08:32:46.741Z,2.90
2018-08-17T08:37:49.038Z,2.57
2018-08-17T08:42:51.251Z,1.93
2018-08-17T08:47:53.431Z,2.53
2018-08-17T08:52:55.607Z,2.60
2018-08-17T08:57:57.816Z,2.70
2018-08-17T09:02:59.973Z,2.90
2018-08-17T09:08:02.145Z,2.50
2018-08-17T09:13:04.367Z,2.33
2018-08-17T09:18:06.522Z,1.97
2018-08-17T09:23:08.663Z,1.70
2018-08-17T09:28:10.927Z,2.20
2018-08-17T09:33:13.090Z,2.50
2018-08-17T09:38:15.251Z,2.20
2018-08-17T09:43:17.439Z,1.93
2018-08-17T09:48:19.608Z,2.20
2018-08-17T09:53:21.803Z,2.00
2018-08-17T09:58:24.200Z,2.73
2018-08-17T10:03:31.979Z,2.60
2018-08-17T10:08:39.912Z,2.77
2018-08-17T10:13:42.077Z,3.53
2018-08-17T10:18:45.006Z,3.87
2018-08-17T10:23:47.149Z,2.97
2018-08-17T10:28:49.328Z,3.87
2018-08-17T10:33:51.786Z,3.90
2018-08-17T10:38:53.889Z,3.23
2018-08-17T10:43:56.027Z,3.27
2018-08-17T10:48:58.369Z,3.70
2018-08-17T10:54:00.471Z,3.50
2018-08-17T10:59:02.724Z,3.40
2018-08-17T11:04:04.951Z,4.73
2018-08-17T11:09:08.264Z,4.23
2018-08-17T11:14:10.456Z,4.33
2018-08-17T11:19:12.629Z,3.83
2018-08-17T11:24:14.813Z,4.03
2018-08-17T11:29:16.995Z,3.70
2018-08-17T11:34:19.200Z,3.37
2018-08-17T11:39:21.398Z,2.80
2018-08-17T11:44:23.561Z,2.93
2018-08-17T11:49:26.587Z,1.67
2018-08-17T11:54:28.793Z,2.20
2018-08-17T11:59:30.911Z,2.23
2018-08-17T12:04:33.100Z,1.90
2018-08-17T12:09:35.210Z,2.53
2018-08-17T12:14:37.339Z,2.00
2018-08-17T12:19:39.477Z,2.17
2018-08-17T12:24:41.967Z,2.23
2018-08-17T12:29:44.136Z,2.20
2018-08-17T12:34:46.292Z,2.13
2018-08-17T12:39:48.521Z,1.97
2018-08-17T12:44:50.727Z,2.33
2018-08-17T12:49:52.858Z,3.10
2018-08-17T12:54:55.056Z,1.97
2018-08-17T12:59:57.224Z,2.80
2018-08-17T13:04:59.395Z,2.67
2018-08-17T13:10:01.572Z,2.23
2018-08-17T13:15:03.775Z,2.37
2018-08-17T13:20:06.254Z,2.10
2018-08-17T13:25:08.459Z,1.80
2018-08-17T13:30:12.766Z,2.20
2018-08-17T13:35:14.940Z,2.57
2018-08-17T13:40:17.129Z,2.53
2018-08-17T13:45:19.333Z,2.83
2018-08-17T13:50:22.215Z,2.60
2018-08-17T13:55:24.533Z,2.50
2018-08-17T14:00:26.691Z,2.37
2018-08-17T14:05:28.851Z,2.33
2018-08-17T14:10:31.016Z,3.00
2018-08-17T14:15:33.233Z,3.10
2018-08-17T14:20:35.417Z,2.97
2018-08-17T14:25:37.586Z,1.67
2018-08-17T14:30:39.813Z,1.40
2018-08-17T14:35:42.033Z,2.07
2018-08-17T14:40:44.199Z,1.80
2018-08-17T14:45:46.360Z,1.80
2018-08-17T14:50:48.579Z,1.50
2018-08-17T14:55:50.806Z,1.40
2018-08-17T15:00:52.985Z,1.53
2018-08-17T15:05:55.193Z,1.53
2018-08-17T15:10:57.349Z,1.17
2018-08-17T15:15:59.518Z,1.23
2018-08-17T15:21:01.691Z,1.30
2018-08-17T15:26:03.900Z,1.43
2018-08-17T15:31:06.124Z,1.70
2018-08-17T15:36:08.403Z,1.77
2018-08-17T15:41:10.633Z,1.17
2018-08-17T15:46:12.872Z,1.50
2018-08-17T15:51:15.150Z,1.90
2018-08-17T15:56:17.257Z,1.63
2018-08-17T16:01:19.451Z,1.70
2018-08-17T16:06:22.496Z,1.63
2018-08-17T16:11:24.682Z,1.47
2018-08-17T16:16:26.890Z,1.57
2018-08-17T16:21:29.152Z,1.60
2018-08-17T16:26:31.369Z,1.70
2018-08-17T16:31:36.376Z,1.57
2018-08-17T16:36:40.520Z,1.97
2018-08-17T16:41:42.857Z,1.80
2018-08-17T16:46:45.080Z,1.50
2018-08-17T16:51:47.230Z,1.40
2018-08-17T16:56:49.445Z,1.50
2018-08-17T17:01:51.656Z,1.43
2018-08-17T17:06:53.914Z,1.20
2018-08-17T17:11:56.098Z,1.70
2018-08-17T17:16:58.246Z,1.33
2018-08-17T17:22:00.396Z,1.40
2018-08-17T17:27:02.664Z,1.70
2018-08-17T17:32:05.490Z,1.70
2018-08-17T17:37:07.670Z,1.33
2018-08-17T17:42:09.920Z,1.30
2018-08-17T17:47:12.105Z,1.50
2018-08-17T17:52:14.300Z,1.50
2018-08-17T17:57:16.571Z,1.73
2018-08-17T18:02:18.746Z,1.60
2018-08-17T18:07:21.409Z,1.73
2018-08-17T18:12:23.625Z,1.30
2018-08-17T18:17:25.832Z,1.30
2018-08-17T18:22:31.473Z,1.57
2018-08-17T18:27:33.682Z,1.63
2018-08-17T18:32:35.886Z,1.93
2018-08-17T18:37:38.264Z,1.40
2018-08-17T18:42:40.479Z,1.47
2018-08-17T18:47:42.637Z,2.07
2018-08-17T18:52:44.974Z,1.93
2018-08-17T18:57:47.222Z,1.33
2018-08-17T19:02:49.422Z,1.63
2018-08-17T19:07:51.672Z,1.57
2018-08-17T19:12:53.817Z,1.70
2018-08-17T19:17:56.105Z,2.10
2018-08-17T19:22:58.254Z,1.37
2018-08-17T19:28:00.464Z,1.90
2018-08-17T19:33:09.263Z,1.80
2018-08-17T19:38:11.643Z,1.60
2018-08-17T19:43:13.931Z,1.97
2018-08-17T19:48:16.103Z,1.90
2018-08-17T19:53:18.416Z,1.70
2018-08-17T19:58:21.356Z,1.80
2018-08-17T20:03:23.578Z,1.87
2018-08-17T20:08:25.848Z,2.23
2018-08-17T20:13:28.067Z,1.70
2018-08-17T20:18:31.127Z,1.97
2018-08-17T20:23:33.427Z,2.13
2018-08-17T20:28:35.604Z,1.90
2018-08-17T20:33:37.804Z,1.77
2018-08-17T20:38:40.088Z,2.57
2018-08-17T20:43:42.370Z,2.13
2018-08-17T20:48:46.637Z,2.47
2018-08-17T20:53:53.272Z,2.17
2018-08-17T20:58:55.757Z,2.37
2018-08-17T21:03:57.949Z,2.00
2018-08-17T21:09:00.144Z,2.27
2018-08-17T21:14:02.367Z,1.90
2018-08-17T21:19:04.869Z,2.13
2018-08-17T21:24:07.230Z,2.33
2018-08-17T21:29:09.435Z,2.07
2018-08-17T21:34:12.094Z,1.97
2018-08-17T21:39:16.687Z,2.73
2018-08-17T21:44:20.537Z,3.40
2018-08-17T21:49:23.894Z,3.77
2018-08-17T21:54:27.857Z,3.50
2018-08-17T21:59:35.953Z,2.90
2018-08-17T22:04:38.177Z,2.40
2018-08-17T22:09:41.692Z,2.80
2018-08-17T22:14:45.589Z,3.27
2018-08-17T22:19:47.713Z,6.07
2018-08-17T22:24:51.917Z,8.67
2018-08-17T22:29:56.759Z,7.13
2018-08-17T22:34:59.068Z,5.70
2018-08-17T22:40:02.715Z,5.00
2018-08-17T22:45:05.474Z,5.10
2018-08-17T22:50:07.628Z,3.73
2018-08-17T22:55:09.787Z,3.30
2018-08-17T23:00:18.135Z,3.40
2018-08-17T23:05:22.510Z,3.07
2018-08-17T23:10:25.707Z,2.43
2018-08-17T23:15:27.863Z,2.77
2018-08-17T23:20:33.557Z,2.90
2018-08-17T23:25:35.694Z,2.80
2018-08-17T23:30:37.858Z,2.70
2018-08-17T23:35:39.999Z,2.10
2018-08-17T23:40:42.142Z,2.03
2018-08-17T23:45:44.309Z,2.37
2018-08-17T23:50:46.467Z,1.87
2018-08-17T23:55:48.643Z,2.20
